sensor_id;sensor_type;location;lat;lon;timestamp;pressure;altitude;pressure_sealevel;temperature;humidity
8061;BME280;4073;42.626;25.386;2023-08-31T00:00:42;96455.00;;;23.73;100.00
8061;BME280;4073;42.626;25.386;2023-08-31T00:03:08;96449.75;;;23.61;100.00
8061;BME280;4073;42.626;25.386;2023-08-31T00:05:40;96452.03;;;23.55;100.00
8061;BME280;4073;42.626;25.386;2023-08-31T00:08:06;96454.03;;;23.58;100.00
8061;BME280;4073;42.626;25.386;2023-08-31T00:10:33;96458.69;;;23.58;100.00
8061;BME280;4073;42.626;25.386;2023-08-31T00:13:00;96461.56;;;23.68;100.00
8061;BME280;4073;42.626;25.386;2023-08-31T00:15:26;96462.38;;;23.72;100.00
8061;BME280;4073;42.626;25.386;2023-08-31T00:17:53;96452.19;;;23.66;100.00
8061;BME280;4073;42.626;25.386;2023-08-31T00:20:19;96474.84;;;23.70;100.00
8061;BME280;4073;42.626;25.386;2023-08-31T00:22:44;96468.94;;;23.64;100.00
8061;BME280;4073;42.626;25.386;2023-08-31T00:25:10;96477.50;;;23.66;100.00
8061;BME280;4073;42.626;25.386;2023-08-31T00:27:35;96478.66;;;23.62;100.00
8061;BME280;4073;42.626;25.386;2023-08-31T00:30:06;96491.06;;;23.59;100.00
8061;BME280;4073;42.626;25.386;2023-08-31T00:32:36;96482.47;;;23.57;100.00
8061;BME280;4073;42.626;25.386;2023-08-31T00:35:02;96472.59;;;23.46;100.00
8061;BME280;4073;42.626;25.386;2023-08-31T00:37:29;96452.22;;;23.36;100.00
8061;BME280;4073;42.626;25.386;2023-08-31T00:39:54;96465.09;;;23.39;100.00
8061;BME280;4073;42.626;25.386;2023-08-31T00:42:20;96457.16;;;23.27;100.00
8061;BME280;4073;42.626;25.386;2023-08-31T00:44:45;96481.16;;;23.44;100.00
8061;BME280;4073;42.626;25.386;2023-08-31T00:47:15;96477.97;;;23.39;100.00
8061;BME280;4073;42.626;25.386;2023-08-31T00:49:41;96486.88;;;23.36;100.00
8061;BME280;4073;42.626;25.386;2023-08-31T00:52:07;96464.22;;;23.32;100.00
8061;BME280;4073;42.626;25.386;2023-08-31T00:54:34;96477.22;;;23.42;100.00
8061;BME280;4073;42.626;25.386;2023-08-31T00:56:59;96468.22;;;23.38;100.00
8061;BME280;4073;42.626;25.386;2023-08-31T00:59:25;96484.66;;;23.45;100.00
8061;BME280;4073;42.626;25.386;2023-08-31T01:02:07;96482.69;;;23.45;100.00
8061;BME280;4073;42.626;25.386;2023-08-31T01:10:34;96486.59;;;23.44;100.00
8061;BME280;4073;42.626;25.386;2023-08-31T01:13:11;96497.13;;;23.46;100.00
8061;BME280;4073;42.626;25.386;2023-08-31T01:15:41;96495.59;;;23.48;100.00
8061;BME280;4073;42.626;25.386;2023-08-31T01:18:14;96487.75;;;23.43;100.00
8061;BME280;4073;42.626;25.386;2023-08-31T01:20:46;96514.69;;;23.48;100.00
8061;BME280;4073;42.626;25.386;2023-08-31T01:23:19;96509.59;;;23.43;100.00
8061;BME280;4073;42.626;25.386;2023-08-31T01:25:46;96502.41;;;23.32;100.00
8061;BME280;4073;42.626;25.386;2023-08-31T01:28:13;96510.16;;;23.30;100.00
8061;BME280;4073;42.626;25.386;2023-08-31T01:30:39;96502.44;;;23.09;100.00
8061;BME280;4073;42.626;25.386;2023-08-31T01:33:04;96518.13;;;23.16;100.00
8061;BME280;4073;42.626;25.386;2023-08-31T01:35:36;96505.47;;;23.04;100.00
8061;BME280;4073;42.626;25.386;2023-08-31T01:38:05;96501.59;;;23.05;100.00
8061;BME280;4073;42.626;25.386;2023-08-31T01:40:35;96514.38;;;23.01;100.00
8061;BME280;4073;42.626;25.386;2023-08-31T01:43:01;96517.38;;;22.93;100.00
8061;BME280;4073;42.626;25.386;2023-08-31T01:45:29;96518.47;;;22.88;100.00
8061;BME280;4073;42.626;25.386;2023-08-31T01:47:56;96516.53;;;22.89;100.00
8061;BME280;4073;42.626;25.386;2023-08-31T01:50:22;96511.41;;;22.84;100.00
8061;BME280;4073;42.626;25.386;2023-08-31T01:52:48;96517.16;;;22.78;100.00
8061;BME280;4073;42.626;25.386;2023-08-31T01:55:13;96520.59;;;22.75;100.00
8061;BME280;4073;42.626;25.386;2023-08-31T01:57:41;96535.94;;;22.84;100.00
8061;BME280;4073;42.626;25.386;2023-08-31T02:00:10;96528.78;;;22.75;100.00
8061;BME280;4073;42.626;25.386;2023-08-31T02:02:36;96540.59;;;22.83;100.00
8061;BME280;4073;42.626;25.386;2023-08-31T02:05:02;96532.41;;;22.83;100.00
8061;BME280;4073;42.626;25.386;2023-08-31T02:07:29;96537.88;;;22.83;100.00
8061;BME280;4073;42.626;25.386;2023-08-31T02:09:54;96535.38;;;22.74;100.00
8061;BME280;4073;42.626;25.386;2023-08-31T02:12:20;96547.94;;;22.79;100.00
8061;BME280;4073;42.626;25.386;2023-08-31T02:14:45;96539.75;;;22.79;100.00
8061;BME280;4073;42.626;25.386;2023-08-31T02:17:11;96538.94;;;22.78;100.00
8061;BME280;4073;42.626;25.386;2023-08-31T02:19:36;96536.56;;;22.73;100.00
8061;BME280;4073;42.626;25.386;2023-08-31T02:22:02;96534.59;;;22.74;100.00
8061;BME280;4073;42.626;25.386;2023-08-31T02:24:27;96536.13;;;22.71;100.00
8061;BME280;4073;42.626;25.386;2023-08-31T02:26:53;96535.28;;;22.67;100.00
8061;BME280;4073;42.626;25.386;2023-08-31T02:29:19;96530.56;;;22.64;100.00
8061;BME280;4073;42.626;25.386;2023-08-31T02:31:44;96538.28;;;22.62;100.00
8061;BME280;4073;42.626;25.386;2023-08-31T02:34:10;96546.53;;;22.66;100.00
8061;BME280;4073;42.626;25.386;2023-08-31T02:36:36;96533.16;;;22.57;100.00
8061;BME280;4073;42.626;25.386;2023-08-31T02:39:02;96546.66;;;22.50;100.00
8061;BME280;4073;42.626;25.386;2023-08-31T02:41:29;96533.34;;;22.26;100.00
8061;BME280;4073;42.626;25.386;2023-08-31T02:43:54;96546.66;;;22.31;100.00
8061;BME280;4073;42.626;25.386;2023-08-31T02:46:20;96545.81;;;22.27;100.00
8061;BME280;4073;42.626;25.386;2023-08-31T02:48:46;96552.41;;;22.26;100.00
8061;BME280;4073;42.626;25.386;2023-08-31T02:51:11;96549.97;;;22.21;100.00
8061;BME280;4073;42.626;25.386;2023-08-31T02:53:37;96548.72;;;22.15;100.00
8061;BME280;4073;42.626;25.386;2023-08-31T02:56:03;96559.97;;;22.14;100.00
8061;BME280;4073;42.626;25.386;2023-08-31T02:58:29;96550.16;;;22.09;100.00
8061;BME280;4073;42.626;25.386;2023-08-31T03:00:54;96555.59;;;22.09;100.00
8061;BME280;4073;42.626;25.386;2023-08-31T03:03:21;96553.38;;;21.96;100.00
8061;BME280;4073;42.626;25.386;2023-08-31T03:05:46;96551.88;;;21.98;100.00
8061;BME280;4073;42.626;25.386;2023-08-31T03:08:12;96555.22;;;21.92;100.00
8061;BME280;4073;42.626;25.386;2023-08-31T03:10:38;96552.22;;;21.78;100.00
8061;BME280;4073;42.626;25.386;2023-08-31T03:13:04;96562.25;;;21.74;100.00
8061;BME280;4073;42.626;25.386;2023-08-31T03:15:32;96555.84;;;21.66;100.00
8061;BME280;4073;42.626;25.386;2023-08-31T03:17:59;96569.53;;;21.70;100.00
8061;BME280;4073;42.626;25.386;2023-08-31T03:20:24;96561.22;;;21.63;100.00
8061;BME280;4073;42.626;25.386;2023-08-31T03:22:50;96569.16;;;21.52;100.00
8061;BME280;4073;42.626;25.386;2023-08-31T03:25:15;96576.19;;;21.38;100.00
8061;BME280;4073;42.626;25.386;2023-08-31T03:27:41;96577.28;;;21.18;100.00
8061;BME280;4073;42.626;25.386;2023-08-31T03:30:07;96573.69;;;21.14;100.00
8061;BME280;4073;42.626;25.386;2023-08-31T03:32:33;96581.78;;;21.10;100.00
8061;BME280;4073;42.626;25.386;2023-08-31T03:34:58;96576.25;;;21.07;100.00
8061;BME280;4073;42.626;25.386;2023-08-31T03:37:24;96580.38;;;21.01;100.00
8061;BME280;4073;42.626;25.386;2023-08-31T03:39:49;96576.06;;;20.84;100.00
8061;BME280;4073;42.626;25.386;2023-08-31T03:42:15;96585.78;;;20.85;100.00
8061;BME280;4073;42.626;25.386;2023-08-31T03:44:41;96578.50;;;20.89;100.00
8061;BME280;4073;42.626;25.386;2023-08-31T03:47:06;96573.19;;;20.77;100.00
8061;BME280;4073;42.626;25.386;2023-08-31T03:49:32;96583.69;;;20.79;100.00
8061;BME280;4073;42.626;25.386;2023-08-31T03:51:59;96593.06;;;20.81;100.00
8061;BME280;4073;42.626;25.386;2023-08-31T03:54:24;96602.25;;;20.77;100.00
8061;BME280;4073;42.626;25.386;2023-08-31T03:56:50;96608.03;;;20.75;100.00
8061;BME280;4073;42.626;25.386;2023-08-31T03:59:15;96603.06;;;20.62;100.00
8061;BME280;4073;42.626;25.386;2023-08-31T04:01:41;96596.28;;;20.56;100.00
8061;BME280;4073;42.626;25.386;2023-08-31T04:04:07;96592.00;;;20.55;100.00
8061;BME280;4073;42.626;25.386;2023-08-31T04:06:32;96590.00;;;20.52;100.00
8061;BME280;4073;42.626;25.386;2023-08-31T04:08:58;96600.16;;;20.55;100.00
8061;BME280;4073;42.626;25.386;2023-08-31T04:11:24;96613.47;;;20.60;100.00
8061;BME280;4073;42.626;25.386;2023-08-31T04:13:50;96612.25;;;20.57;100.00
8061;BME280;4073;42.626;25.386;2023-08-31T04:16:15;96619.25;;;20.58;100.00
8061;BME280;4073;42.626;25.386;2023-08-31T04:18:41;96608.31;;;20.55;100.00
8061;BME280;4073;42.626;25.386;2023-08-31T04:21:08;96604.19;;;20.61;100.00
8061;BME280;4073;42.626;25.386;2023-08-31T04:23:33;96631.91;;;20.82;100.00
8061;BME280;4073;42.626;25.386;2023-08-31T04:25:59;96631.28;;;20.88;100.00
8061;BME280;4073;42.626;25.386;2023-08-31T04:28:24;96636.41;;;21.05;100.00
8061;BME280;4073;42.626;25.386;2023-08-31T04:30:50;96630.53;;;21.19;100.00
8061;BME280;4073;42.626;25.386;2023-08-31T04:33:17;96633.94;;;21.31;100.00
8061;BME280;4073;42.626;25.386;2023-08-31T04:35:42;96634.91;;;21.39;100.00
8061;BME280;4073;42.626;25.386;2023-08-31T04:38:08;96647.56;;;21.50;100.00
8061;BME280;4073;42.626;25.386;2023-08-31T04:40:33;96653.78;;;21.66;100.00
8061;BME280;4073;42.626;25.386;2023-08-31T04:42:59;96647.91;;;21.80;100.00
8061;BME280;4073;42.626;25.386;2023-08-31T04:45:25;96647.56;;;22.00;100.00
8061;BME280;4073;42.626;25.386;2023-08-31T04:47:51;96650.16;;;22.12;100.00
8061;BME280;4073;42.626;25.386;2023-08-31T04:50:17;96652.16;;;22.15;100.00
8061;BME280;4073;42.626;25.386;2023-08-31T04:52:43;96648.56;;;22.30;100.00
8061;BME280;4073;42.626;25.386;2023-08-31T04:55:08;96656.66;;;22.46;100.00
8061;BME280;4073;42.626;25.386;2023-08-31T04:57:35;96662.47;;;22.63;100.00
8061;BME280;4073;42.626;25.386;2023-08-31T05:00:01;96661.94;;;22.77;100.00
8061;BME280;4073;42.626;25.386;2023-08-31T05:02:28;96653.66;;;22.93;100.00
8061;BME280;4073;42.626;25.386;2023-08-31T05:04:54;96663.13;;;22.99;100.00
8061;BME280;4073;42.626;25.386;2023-08-31T05:07:19;96672.38;;;22.94;100.00
8061;BME280;4073;42.626;25.386;2023-08-31T05:09:45;96679.44;;;22.95;100.00
8061;BME280;4073;42.626;25.386;2023-08-31T05:12:10;96681.22;;;22.88;100.00
8061;BME280;4073;42.626;25.386;2023-08-31T05:14:36;96680.44;;;22.87;100.00
8061;BME280;4073;42.626;25.386;2023-08-31T05:17:06;96689.44;;;22.91;100.00
8061;BME280;4073;42.626;25.386;2023-08-31T05:19:32;96691.09;;;23.18;100.00
8061;BME280;4073;42.626;25.386;2023-08-31T05:21:57;96698.56;;;23.44;100.00
8061;BME280;4073;42.626;25.386;2023-08-31T05:24:23;96683.06;;;23.25;100.00
8061;BME280;4073;42.626;25.386;2023-08-31T05:26:51;96699.88;;;23.27;100.00
8061;BME280;4073;42.626;25.386;2023-08-31T05:29:17;96693.97;;;23.25;100.00
8061;BME280;4073;42.626;25.386;2023-08-31T05:31:42;96691.56;;;23.43;100.00
8061;BME280;4073;42.626;25.386;2023-08-31T05:34:16;96708.88;;;23.54;100.00
8061;BME280;4073;42.626;25.386;2023-08-31T05:36:41;96705.00;;;23.55;100.00
8061;BME280;4073;42.626;25.386;2023-08-31T05:39:07;96703.72;;;23.71;100.00
8061;BME280;4073;42.626;25.386;2023-08-31T05:41:34;96697.72;;;23.88;100.00
8061;BME280;4073;42.626;25.386;2023-08-31T05:43:59;96691.16;;;24.19;100.00
8061;BME280;4073;42.626;25.386;2023-08-31T05:46:25;96697.34;;;24.45;100.00
8061;BME280;4073;42.626;25.386;2023-08-31T05:48:50;96706.44;;;24.86;100.00
8061;BME280;4073;42.626;25.386;2023-08-31T05:51:17;96707.97;;;25.20;100.00
8061;BME280;4073;42.626;25.386;2023-08-31T05:53:43;96698.50;;;25.51;100.00
8061;BME280;4073;42.626;25.386;2023-08-31T05:56:08;96695.13;;;25.68;100.00
8061;BME280;4073;42.626;25.386;2023-08-31T05:58:35;96704.22;;;25.86;100.00
8061;BME280;4073;42.626;25.386;2023-08-31T06:01:03;96699.28;;;26.05;100.00
8061;BME280;4073;42.626;25.386;2023-08-31T06:03:29;96696.69;;;26.30;98.76
8061;BME280;4073;42.626;25.386;2023-08-31T06:05:58;96695.25;;;26.57;96.45
8061;BME280;4073;42.626;25.386;2023-08-31T06:08:24;96700.09;;;26.84;94.81
8061;BME280;4073;42.626;25.386;2023-08-31T06:10:51;96701.31;;;27.08;92.03
8061;BME280;4073;42.626;25.386;2023-08-31T06:13:17;96690.78;;;27.24;89.00
8061;BME280;4073;42.626;25.386;2023-08-31T06:15:42;96699.81;;;27.49;86.61
8061;BME280;4073;42.626;25.386;2023-08-31T06:18:09;96674.72;;;27.61;84.01
8061;BME280;4073;42.626;25.386;2023-08-31T06:20:35;96699.44;;;28.00;82.63
8061;BME280;4073;42.626;25.386;2023-08-31T06:23:01;96696.63;;;28.17;81.01
8061;BME280;4073;42.626;25.386;2023-08-31T06:25:27;96696.63;;;28.21;77.03
8061;BME280;4073;42.626;25.386;2023-08-31T06:27:53;96710.28;;;28.56;76.19
8061;BME280;4073;42.626;25.386;2023-08-31T06:30:18;96708.63;;;28.72;75.51
8061;BME280;4073;42.626;25.386;2023-08-31T06:32:45;96682.69;;;28.80;73.88
8061;BME280;4073;42.626;25.386;2023-08-31T06:35:11;96705.31;;;29.12;72.45
8061;BME280;4073;42.626;25.386;2023-08-31T06:37:38;96711.06;;;29.35;71.14
8061;BME280;4073;42.626;25.386;2023-08-31T06:40:08;96721.88;;;29.67;70.15
8061;BME280;4073;42.626;25.386;2023-08-31T06:42:37;96716.13;;;29.95;67.81
8061;BME280;4073;42.626;25.386;2023-08-31T06:45:04;96718.34;;;30.11;65.32
8061;BME280;4073;42.626;25.386;2023-08-31T06:47:30;96715.91;;;30.16;63.41
8061;BME280;4073;42.626;25.386;2023-08-31T06:49:56;96718.22;;;30.25;62.20
8061;BME280;4073;42.626;25.386;2023-08-31T06:52:23;96727.09;;;30.43;60.47
8061;BME280;4073;42.626;25.386;2023-08-31T06:54:49;96723.63;;;30.69;59.47
8061;BME280;4073;42.626;25.386;2023-08-31T06:57:15;96717.13;;;30.86;56.98
8061;BME280;4073;42.626;25.386;2023-08-31T06:59:40;96721.53;;;31.10;56.06
8061;BME280;4073;42.626;25.386;2023-08-31T07:02:06;96717.50;;;31.18;54.73
8061;BME280;4073;42.626;25.386;2023-08-31T07:04:31;96709.66;;;31.43;54.15
8061;BME280;4073;42.626;25.386;2023-08-31T07:06:57;96719.75;;;31.79;52.70
8061;BME280;4073;42.626;25.386;2023-08-31T07:09:22;96708.44;;;31.93;50.36
8061;BME280;4073;42.626;25.386;2023-08-31T07:11:47;96713.00;;;32.27;49.81
8061;BME280;4073;42.626;25.386;2023-08-31T07:14:13;96714.88;;;32.33;49.70
8061;BME280;4073;42.626;25.386;2023-08-31T07:16:38;96717.66;;;32.53;48.61
8061;BME280;4073;42.626;25.386;2023-08-31T07:19:04;96719.03;;;32.84;46.81
8061;BME280;4073;42.626;25.386;2023-08-31T07:21:29;96706.00;;;32.84;44.20
8061;BME280;4073;42.626;25.386;2023-08-31T07:23:55;96722.41;;;33.11;41.79
8061;BME280;4073;42.626;25.386;2023-08-31T07:26:21;96725.44;;;33.16;41.50
8061;BME280;4073;42.626;25.386;2023-08-31T07:28:47;96725.38;;;33.39;41.56
8061;BME280;4073;42.626;25.386;2023-08-31T07:31:12;96730.97;;;33.36;41.41
8061;BME280;4073;42.626;25.386;2023-08-31T07:33:38;96736.22;;;33.66;40.72
8061;BME280;4073;42.626;25.386;2023-08-31T07:36:04;96737.00;;;33.82;40.88
8061;BME280;4073;42.626;25.386;2023-08-31T07:38:31;96732.22;;;33.83;40.10
8061;BME280;4073;42.626;25.386;2023-08-31T07:40:57;96746.47;;;33.85;39.87
8061;BME280;4073;42.626;25.386;2023-08-31T07:43:23;96734.59;;;34.00;38.22
8061;BME280;4073;42.626;25.386;2023-08-31T07:45:50;96742.63;;;34.11;38.52
8061;BME280;4073;42.626;25.386;2023-08-31T07:48:15;96741.41;;;34.44;37.56
8061;BME280;4073;42.626;25.386;2023-08-31T07:50:41;96732.06;;;34.06;37.72
8061;BME280;4073;42.626;25.386;2023-08-31T07:53:07;96737.25;;;34.04;38.03
8061;BME280;4073;42.626;25.386;2023-08-31T07:55:33;96742.00;;;34.19;37.49
8061;BME280;4073;42.626;25.386;2023-08-31T07:57:59;96733.34;;;34.34;37.15
8061;BME280;4073;42.626;25.386;2023-08-31T08:00:24;96726.91;;;33.92;37.33
8061;BME280;4073;42.626;25.386;2023-08-31T08:02:50;96723.31;;;33.24;39.67
8061;BME280;4073;42.626;25.386;2023-08-31T08:05:15;96704.25;;;32.71;40.75
8061;BME280;4073;42.626;25.386;2023-08-31T08:07:41;96730.66;;;32.56;42.78
8061;BME280;4073;42.626;25.386;2023-08-31T08:10:08;96731.41;;;32.37;42.77
8061;BME280;4073;42.626;25.386;2023-08-31T08:12:41;96731.47;;;32.10;42.78
8061;BME280;4073;42.626;25.386;2023-08-31T08:15:09;96732.03;;;32.02;43.59
8061;BME280;4073;42.626;25.386;2023-08-31T08:17:35;96725.16;;;32.10;44.37
8061;BME280;4073;42.626;25.386;2023-08-31T08:20:03;96726.66;;;32.14;45.46
8061;BME280;4073;42.626;25.386;2023-08-31T08:22:28;96725.81;;;32.60;43.88
8061;BME280;4073;42.626;25.386;2023-08-31T08:24:54;96727.09;;;33.14;42.07
8061;BME280;4073;42.626;25.386;2023-08-31T08:27:19;96725.81;;;33.70;39.71
8061;BME280;4073;42.626;25.386;2023-08-31T08:29:46;96719.13;;;34.15;37.28
8061;BME280;4073;42.626;25.386;2023-08-31T08:32:12;96734.81;;;34.67;35.07
8061;BME280;4073;42.626;25.386;2023-08-31T08:34:38;96727.63;;;34.69;35.22
8061;BME280;4073;42.626;25.386;2023-08-31T08:37:03;96722.59;;;34.36;34.41
8061;BME280;4073;42.626;25.386;2023-08-31T08:39:30;96713.03;;;33.92;35.92
8061;BME280;4073;42.626;25.386;2023-08-31T08:41:58;96713.16;;;33.37;36.70
8061;BME280;4073;42.626;25.386;2023-08-31T08:44:24;96711.84;;;32.86;37.24
8061;BME280;4073;42.626;25.386;2023-08-31T08:46:51;96718.38;;;32.37;38.86
8061;BME280;4073;42.626;25.386;2023-08-31T08:49:18;96727.56;;;31.84;39.66
8061;BME280;4073;42.626;25.386;2023-08-31T08:51:45;96727.84;;;31.40;40.86
8061;BME280;4073;42.626;25.386;2023-08-31T08:54:12;96734.66;;;30.69;48.31
8061;BME280;4073;42.626;25.386;2023-08-31T08:56:38;96732.41;;;30.23;52.72
8061;BME280;4073;42.626;25.386;2023-08-31T08:59:05;96719.88;;;29.71;57.11
8061;BME280;4073;42.626;25.386;2023-08-31T09:01:31;96725.94;;;29.48;60.17
8061;BME280;4073;42.626;25.386;2023-08-31T09:03:57;96728.56;;;29.01;63.00
8061;BME280;4073;42.626;25.386;2023-08-31T09:06:23;96724.00;;;28.63;64.92
8061;BME280;4073;42.626;25.386;2023-08-31T09:08:54;96731.53;;;28.48;67.66
8061;BME280;4073;42.626;25.386;2023-08-31T09:11:22;96728.78;;;28.34;70.74
8061;BME280;4073;42.626;25.386;2023-08-31T09:13:48;96742.16;;;28.22;73.32
8061;BME280;4073;42.626;25.386;2023-08-31T09:16:32;96738.59;;;28.39;74.22
8061;BME280;4073;42.626;25.386;2023-08-31T09:18:58;96741.75;;;28.37;75.80
8061;BME280;4073;42.626;25.386;2023-08-31T09:21:37;96742.91;;;28.50;76.25
8061;BME280;4073;42.626;25.386;2023-08-31T09:24:05;96756.28;;;28.34;77.29
8061;BME280;4073;42.626;25.386;2023-08-31T09:26:37;96732.78;;;28.02;78.29
8061;BME280;4073;42.626;25.386;2023-08-31T09:29:05;96742.56;;;27.82;80.61
8061;BME280;4073;42.626;25.386;2023-08-31T09:31:30;96743.00;;;28.08;79.09
8061;BME280;4073;42.626;25.386;2023-08-31T09:33:56;96746.44;;;28.58;73.70
8061;BME280;4073;42.626;25.386;2023-08-31T09:36:21;96748.91;;;29.21;69.12
8061;BME280;4073;42.626;25.386;2023-08-31T09:38:48;96750.69;;;30.03;63.75
8061;BME280;4073;42.626;25.386;2023-08-31T09:41:13;96729.16;;;30.69;59.32
8061;BME280;4073;42.626;25.386;2023-08-31T09:43:41;96740.47;;;31.41;54.07
8061;BME280;4073;42.626;25.386;2023-08-31T09:46:06;96740.88;;;32.16;47.78
8061;BME280;4073;42.626;25.386;2023-08-31T09:48:34;96704.81;;;32.82;44.53
8061;BME280;4073;42.626;25.386;2023-08-31T09:51:04;96730.94;;;33.71;40.84
8061;BME280;4073;42.626;25.386;2023-08-31T09:53:31;96741.69;;;34.01;37.81
8061;BME280;4073;42.626;25.386;2023-08-31T09:55:57;96739.41;;;34.28;35.67
8061;BME280;4073;42.626;25.386;2023-08-31T09:58:23;96735.53;;;34.42;35.03
8061;BME280;4073;42.626;25.386;2023-08-31T10:00:50;96740.63;;;34.72;34.26
8061;BME280;4073;42.626;25.386;2023-08-31T10:03:15;96730.16;;;34.92;33.24
8061;BME280;4073;42.626;25.386;2023-08-31T10:05:45;96736.75;;;34.54;33.43
8061;BME280;4073;42.626;25.386;2023-08-31T10:08:14;96722.84;;;34.41;32.69
8061;BME280;4073;42.626;25.386;2023-08-31T10:10:40;96739.00;;;34.14;32.45
8061;BME280;4073;42.626;25.386;2023-08-31T10:13:06;96727.38;;;33.55;34.70
8061;BME280;4073;42.626;25.386;2023-08-31T10:15:34;96735.41;;;32.75;36.22
8061;BME280;4073;42.626;25.386;2023-08-31T10:18:01;96716.25;;;32.22;37.80
8061;BME280;4073;42.626;25.386;2023-08-31T10:20:28;96737.84;;;32.07;37.99
8061;BME280;4073;42.626;25.386;2023-08-31T10:22:57;96721.19;;;31.61;39.24
8061;BME280;4073;42.626;25.386;2023-08-31T10:25:23;96730.66;;;31.63;36.73
8061;BME280;4073;42.626;25.386;2023-08-31T10:27:49;96738.19;;;31.59;35.22
8061;BME280;4073;42.626;25.386;2023-08-31T10:30:25;96738.94;;;31.37;35.70
8061;BME280;4073;42.626;25.386;2023-08-31T10:35:51;96733.38;;;31.10;34.77
8061;BME280;4073;42.626;25.386;2023-08-31T10:38:24;96742.56;;;31.04;35.22
8061;BME280;4073;42.626;25.386;2023-08-31T10:41:18;96746.16;;;30.97;37.36
8061;BME280;4073;42.626;25.386;2023-08-31T10:43:49;96751.00;;;30.90;38.67
8061;BME280;4073;42.626;25.386;2023-08-31T10:46:33;96753.31;;;30.95;38.51
8061;BME280;4073;42.626;25.386;2023-08-31T10:51:41;96758.00;;;30.98;41.17
8061;BME280;4073;42.626;25.386;2023-08-31T10:54:19;96757.09;;;30.74;44.18
8061;BME280;4073;42.626;25.386;2023-08-31T10:59:24;96767.72;;;30.76;47.34
8061;BME280;4073;42.626;25.386;2023-08-31T11:01:57;96685.53;;;30.23;51.56
8061;BME280;4073;42.626;25.386;2023-08-31T11:04:27;96768.47;;;30.80;53.00
8061;BME280;4073;42.626;25.386;2023-08-31T11:09:40;96767.63;;;30.83;59.81
8061;BME280;4073;42.626;25.386;2023-08-31T11:12:06;96757.13;;;30.71;59.20
8061;BME280;4073;42.626;25.386;2023-08-31T11:14:32;96767.69;;;30.42;59.93
8061;BME280;4073;42.626;25.386;2023-08-31T11:16:59;96771.22;;;29.99;60.93
8061;BME280;4073;42.626;25.386;2023-08-31T11:19:26;96778.47;;;29.79;61.95
8061;BME280;4073;42.626;25.386;2023-08-31T11:21:51;96771.38;;;29.81;61.85
8061;BME280;4073;42.626;25.386;2023-08-31T11:24:17;96757.63;;;30.62;57.42
8061;BME280;4073;42.626;25.386;2023-08-31T11:26:43;96756.06;;;31.78;51.40
8061;BME280;4073;42.626;25.386;2023-08-31T11:29:08;96757.78;;;32.84;46.47
8061;BME280;4073;42.626;25.386;2023-08-31T11:31:40;96749.75;;;33.64;44.21
8061;BME280;4073;42.626;25.386;2023-08-31T11:34:06;96754.25;;;34.22;41.82
8061;BME280;4073;42.626;25.386;2023-08-31T11:36:32;96749.38;;;34.71;39.90
8061;BME280;4073;42.626;25.386;2023-08-31T11:38:58;96733.94;;;34.98;39.43
8061;BME280;4073;42.626;25.386;2023-08-31T11:41:24;96739.91;;;34.84;37.24
8061;BME280;4073;42.626;25.386;2023-08-31T11:43:50;96745.97;;;34.79;37.44
8061;BME280;4073;42.626;25.386;2023-08-31T11:46:17;96734.97;;;34.31;37.29
8061;BME280;4073;42.626;25.386;2023-08-31T11:48:43;96727.94;;;34.26;36.90
8061;BME280;4073;42.626;25.386;2023-08-31T11:51:10;96732.13;;;34.18;37.37
8061;BME280;4073;42.626;25.386;2023-08-31T11:53:36;96729.84;;;33.85;37.55
8061;BME280;4073;42.626;25.386;2023-08-31T11:56:03;96718.03;;;33.81;37.55
8061;BME280;4073;42.626;25.386;2023-08-31T11:58:28;96727.06;;;33.85;36.96
8061;BME280;4073;42.626;25.386;2023-08-31T12:00:56;96729.13;;;33.97;36.29
8061;BME280;4073;42.626;25.386;2023-08-31T12:03:22;96720.44;;;33.63;37.18
8061;BME280;4073;42.626;25.386;2023-08-31T12:05:48;96707.88;;;33.74;37.10
8061;BME280;4073;42.626;25.386;2023-08-31T12:08:26;96718.91;;;33.94;36.92
8061;BME280;4073;42.626;25.386;2023-08-31T12:10:53;96716.13;;;33.78;36.69
8061;BME280;4073;42.626;25.386;2023-08-31T12:13:19;96690.56;;;33.38;36.99
8061;BME280;4073;42.626;25.386;2023-08-31T12:15:44;96706.25;;;32.90;40.26
8061;BME280;4073;42.626;25.386;2023-08-31T12:18:11;96702.06;;;32.43;43.95
8061;BME280;4073;42.626;25.386;2023-08-31T12:20:44;96718.53;;;32.03;46.46
8061;BME280;4073;42.626;25.386;2023-08-31T12:23:09;96720.69;;;31.43;47.48
8061;BME280;4073;42.626;25.386;2023-08-31T12:25:35;96713.16;;;31.17;49.69
8061;BME280;4073;42.626;25.386;2023-08-31T12:28:01;96715.09;;;30.90;52.95
8061;BME280;4073;42.626;25.386;2023-08-31T12:30:27;96730.25;;;30.78;55.81
8061;BME280;4073;42.626;25.386;2023-08-31T12:32:53;96713.44;;;30.29;56.86
8061;BME280;4073;42.626;25.386;2023-08-31T12:35:18;96728.69;;;30.00;56.93
8061;BME280;4073;42.626;25.386;2023-08-31T12:37:44;96727.22;;;29.85;57.99
8061;BME280;4073;42.626;25.386;2023-08-31T12:40:10;96735.16;;;29.79;58.99
8061;BME280;4073;42.626;25.386;2023-08-31T12:42:36;96732.13;;;29.66;59.27
8061;BME280;4073;42.626;25.386;2023-08-31T12:45:01;96723.22;;;29.41;60.67
8061;BME280;4073;42.626;25.386;2023-08-31T12:47:28;96735.84;;;29.39;62.76
8061;BME280;4073;42.626;25.386;2023-08-31T12:49:53;96730.69;;;29.41;62.68
8061;BME280;4073;42.626;25.386;2023-08-31T12:52:18;96750.38;;;29.39;62.44
8061;BME280;4073;42.626;25.386;2023-08-31T12:54:44;96750.38;;;29.39;62.28
8061;BME280;4073;42.626;25.386;2023-08-31T12:57:09;96734.66;;;29.36;61.78
8061;BME280;4073;42.626;25.386;2023-08-31T12:59:35;96741.22;;;29.56;61.11
8061;BME280;4073;42.626;25.386;2023-08-31T13:02:00;96738.91;;;29.48;61.66
8061;BME280;4073;42.626;25.386;2023-08-31T13:04:29;96743.47;;;29.72;60.43
8061;BME280;4073;42.626;25.386;2023-08-31T13:06:54;96737.66;;;29.63;61.78
8061;BME280;4073;42.626;25.386;2023-08-31T13:09:19;96754.31;;;29.93;61.04
8061;BME280;4073;42.626;25.386;2023-08-31T13:11:45;96747.84;;;30.14;59.51
8061;BME280;4073;42.626;25.386;2023-08-31T13:14:10;96744.19;;;30.27;59.92
8061;BME280;4073;42.626;25.386;2023-08-31T13:16:36;96759.16;;;30.26;59.02
8061;BME280;4073;42.626;25.386;2023-08-31T13:19:04;96754.84;;;30.25;59.42